Upcoming* NOVA Improvements: Earlier this summer, the Minnesota Public Utilities Commission approved revised templates for the Simplified and Standard Interconnection Applications. While these templates are not required and do not change the MN DIP, NOVA Power Portal is being updated to align with these templates by clarifying application questions and simplifying input data fields, which includes removing current redundant inputs. For more information and to view copies of the revised templates, visit the MN PUC web site: mn.gov/puc/activities/economic-analysis/distributed-energy/interconnections/
*These NOVA Power Portal updates will be implemented by the end of 2021.

Distributed Energy Resource Document Library

Browse interconnection resource documents or download a PDF application.

Current Application Queue

APP ID Queue # Qualify Date Process Status DER Type and Size Sub - Fdr - Phs
APP2975 1 3/24/2020 10:02:34 AM Fast Track Interconnected Solar Photovoltaic 22.80 kW 24 - 1 - A
APP2977 2 3/24/2020 1:10:53 PM Fast Track Interconnected Solar Photovoltaic 34.20 kW 11 - 1 - A
APP3023 3 4/6/2020 7:57:46 AM Simplified Interconnected Solar Photovoltaic 5.00 kW 25 - 1 - C
APP3130 4 5/17/2020 10:13:12 AM Fast Track Interconnected Solar Photovoltaic 39.99 kW 2 - 2 - ABC
APP3129 5 5/18/2020 11:40:34 AM Fast Track Interconnected Solar Photovoltaic 39.99 kW 2 - 2 - A
APP2972 6 6/5/2020 12:28:48 PM Fast Track Interconnected Solar Photovoltaic 37.50 kW 4 - 3 - A
APP3201 7 6/5/2020 2:25:03 PM Fast Track Interconnected Solar Photovoltaic 34.20 kW 14 - 2 - A
APP3165 8 6/17/2020 9:04:35 PM Fast Track Interconnected Solar Photovoltaic 37.50 kW 8 - 3 - C
APP3265 9 6/23/2020 5:14:51 PM Fast Track Interconnected Solar Photovoltaic 34.20 kW 3 - 4 - B
APP3239 10 6/24/2020 3:18:41 PM Simplified Interconnected Solar Photovoltaic 3.80 kW 28 - 2 - C
APP3304 11 7/10/2020 8:23:58 AM Simplified Interconnected Solar Photovoltaic 10.00 kW 3 - 3 - B
APP3354 12 7/21/2020 1:36:52 PM Fast Track Interconnected Solar Photovoltaic 24.00 kW 12 - 1 - C
APP3392 13 7/29/2020 1:45:46 PM Simplified Interconnected Solar Photovoltaic 10.00 kW 11 - 1 - B
APP3404 14 8/2/2020 9:25:36 PM Fast Track Interconnected Solar Photovoltaic 22.80 kW 1 - 3 - A
APP3442 15 8/13/2020 8:51:11 AM Simplified Interconnected Solar Photovoltaic 16.44 kW 11 - 2 - C
APP3353 16 8/21/2020 5:50:47 PM Study Process Interconnected Solar Photovoltaic 1000.00 kW 5 - 2 - ABC
APP3463 17 8/24/2020 8:43:38 AM Simplified Interconnected Solar Photovoltaic 13.60 kW 5 - 2 - B
APP3491 18 8/29/2020 5:21:09 AM Fast Track Interconnected Solar Photovoltaic 38.20 kW 5 - 2 - B
APP3501 19 8/31/2020 12:23:01 PM Simplified Interconnected Solar Photovoltaic 10.00 kW 25 - 1 - C
APP3502 20 8/31/2020 12:30:06 PM Simplified Interconnected Solar Photovoltaic 4.80 kW 16 - 2 - B
APP3571 21 9/16/2020 4:07:42 PM Simplified Interconnected Solar Photovoltaic 15.20 kW 14 - 2 - B
APP3581 22 9/18/2020 12:27:00 PM Simplified Interconnected Solar Photovoltaic 14.50 kW 16 - 2 - C
APP3629 23 9/24/2020 2:14:47 PM Simplified Interconnected Solar Photovoltaic 15.20 kW 14 - 2 - A
APP3615 24 9/26/2020 11:34:18 AM Fast Track Interconnected Solar Photovoltaic 37.50 kW 17 - 2 - B
APP3701 25 10/12/2020 9:52:50 AM Fast Track Interconnected Solar Photovoltaic 37.60 kW 4 - 3 - A
APP3765 26 10/24/2020 2:48:24 PM Simplified Interconnected Solar Photovoltaic 3.00 kW 12 - 2 - A
APP3931 27 11/19/2020 5:06:34 PM Simplified Interconnected Solar Photovoltaic 15.00 kW 10 - 1 - A
APP4028 28 1/12/2021 4:02:05 PM Fast Track DER Installation and Interconnection Solar Photovoltaic 36.00 kW 2 - 1 - ABC
APP4027 29 1/12/2021 4:08:40 PM Fast Track DER Installation and Interconnection Solar Photovoltaic 36.00 kW 2 - 1 - ABC
APP4060 30 1/27/2021 9:17:07 PM Fast Track Interconnected Solar Photovoltaic 22.80 kW 18 - 3 - B
APP4137 31 2/12/2021 5:42:31 PM Simplified Interconnected Solar Photovoltaic 15.20 kW 11 - 1 - B
APP4213-Storage 32 3/4/2021 2:27:47 PM Simplified DER Installation and Interconnection Energy Storage 7.00 kW 14 - 2 - A
APP4290 33 3/16/2021 9:35:00 AM Simplified Interconnected Solar Photovoltaic 10.00 kW 3 - 1 - C
APP4291 34 3/16/2021 9:35:43 AM Simplified Interconnected Solar Photovoltaic 13.60 kW 3 - 1 - C
APP4301 35 3/17/2021 7:08:36 AM Fast Track Interconnected Solar Photovoltaic 21.60 kW 27 - 35 - B
APP4334 36 3/22/2021 11:25:00 PM Simplified Interconnected Solar Photovoltaic 7.12 kW 14 - 3 - B
APP4337 37 3/23/2021 1:07:20 PM Simplified Interconnected Solar Photovoltaic 7.67 kW 14 - 3 - B
APP4221 38 3/23/2021 1:52:55 PM Fast Track Interconnected Solar Photovoltaic 36.00 kW 8 - 1 - ABC
APP4363 39 3/25/2021 11:46:06 AM Simplified Interconnected Solar Photovoltaic 6.58 kW 14 - 3 - B
APP4362 40 3/25/2021 3:41:46 PM Simplified Interconnected Solar Photovoltaic 5.48 kW 17 - 4 - A
APP4220 41 3/25/2021 5:40:23 PM Fast Track Interconnected Solar Photovoltaic 36.00 kW 8 - 1 - A
APP4360 42 3/25/2021 6:31:29 PM Simplified Interconnected Solar Photovoltaic 3.29 kW 14 - 3 - C
APP4336 43 3/26/2021 12:03:38 PM Simplified Interconnected Solar Photovoltaic 8.22 kW 16 - 1 - B
APP4361 44 3/26/2021 3:39:17 PM Simplified Interconnected Solar Photovoltaic 6.03 kW 16 - 1 - B
APP4359 45 4/9/2021 5:53:59 AM Simplified Interconnected Solar Photovoltaic 6.58 kW 24 - 1 - B
APP4442 46 4/16/2021 3:13:06 PM Simplified Interconnected Solar Photovoltaic 11.51 kW 16 - 1 - A
APP4458 47 4/22/2021 6:23:09 AM Simplified DER Installation and Interconnection Solar Photovoltaic 3.49 kW 17 - 2 - C
APP4482 48 5/4/2021 2:19:32 PM Simplified Interconnected Solar Photovoltaic 11.40 kW 2 - 3 - C
APP4665 49 6/9/2021 11:54:06 AM Simplified DER Installation and Interconnection Solar Photovoltaic 5.22 kW 16 - 1 - B
APP4708 50 6/17/2021 1:39:22 PM Simplified Interconnected Solar Photovoltaic 20.00 kW 5 - 2 - C
APP4715 51 6/19/2021 11:48:00 AM Fast Track DER Installation and Interconnection Solar Photovoltaic 34.20 kW 3 - 3 - A
APP4719 52 6/22/2021 9:42:52 PM Simplified Interconnected Solar Photovoltaic 9.86 kW 16 - 1 - A
APP4777 53 7/14/2021 8:04:05 AM Simplified DER Installation and Interconnection Solar Photovoltaic 3.19 kW 30 - 65 - A
APP4828 54 7/16/2021 2:37:30 PM Simplified Interconnected Solar Photovoltaic 20.00 kW 3 - 3 - A
APP4812 55 7/17/2021 11:02:33 AM Fast Track DER Installation and Interconnection Solar Photovoltaic 21.40 kW 5 - 1 - A
APP4796 56 7/22/2021 12:08:45 PM Simplified Interconnected Solar Photovoltaic 9.00 kW 25 - 1 - B
APP4876 57 7/31/2021 7:14:36 PM Fast Track Interconnected Solar Photovoltaic 22.80 kW 3 - 4 - A
APP4882 58 8/3/2021 9:20:09 PM Simplified DER Installation and Interconnection Solar Photovoltaic 14.40 kW 20 - 2 - A
APP4898 59 8/6/2021 7:01:00 PM Fast Track Interconnected Solar Photovoltaic 38.00 kW 15 - 1 - B
APP4902 60 8/9/2021 9:08:16 AM Fast Track Interconnected Solar Photovoltaic 38.00 kW 31 - 1 - B
APP4907 61 8/10/2021 11:55:55 AM Simplified DER Installation and Interconnection Solar Photovoltaic 5.23 kW 29 - 30 - B
APP4905 62 8/11/2021 8:34:50 AM Fast Track DER Installation and Interconnection Solar Photovoltaic 37.50 kW 15 - 3 - A
APP4910 63 8/24/2021 8:50:20 AM Fast Track DER Installation and Interconnection Solar Photovoltaic 37.50 kW 15 - 3 - A
APP5009 64 8/30/2021 8:39:56 PM Simplified DER Installation and Interconnection Solar Photovoltaic 13.60 kW 2 - 1 - C
APP5010 65 9/1/2021 2:59:12 PM Fast Track Facilities Construction Solar Photovoltaic 30.00 kW 8 - 1 - B
APP4798 66 9/2/2021 8:48:34 AM Fast Track DER Installation and Interconnection Solar Photovoltaic 30.72 kW 7 - 1 - B
APP5071 67 9/14/2021 12:03:11 PM Fast Track DER Installation and Interconnection Solar Photovoltaic 39.80 kW 2 - 3 - C
APP5108 68 9/15/2021 3:32:24 PM Simplified Facilities Construction Solar Photovoltaic 15.20 kW 25 - 1 - C
APP5114 69 9/16/2021 11:48:07 AM Fast Track DER Installation and Interconnection Solar Photovoltaic 25.00 kW 14 - 2 - A
APP5099 70 9/20/2021 9:13:31 AM Fast Track Facilities Construction Solar Photovoltaic 38.00 kW 6 - 1 - C
APP5123 71 9/21/2021 12:13:02 PM Simplified DER Installation and Interconnection Solar Photovoltaic 16.00 kW 2 - 2 - A
APP5122 72 9/27/2021 11:09:13 AM Simplified Pending Contract Solar Photovoltaic 11.17 kW 17 - 4 - B
APP5180 73 10/5/2021 4:55:47 PM Simplified Pending Initial Review Solar Photovoltaic 10.00 kW - -
APP4947 74 10/6/2021 9:44:07 AM Fast Track Pending Engineer Review Solar Photovoltaic 36.40 kW 5 - 1 - C
APP5155 75 10/6/2021 10:42:47 AM Fast Track Pending Initial Review Solar Photovoltaic 46.80 kW - -
APP5196 76 10/13/2021 7:24:41 PM Simplified Pending Initial Review Solar Photovoltaic 16.00 kW - -

 

 

  © 2021 - Application developed and maintained by STAR Energy Services LLC